Time;durP1;ratioP1;P1;durP2;ratioP2;P2;SDS_P1;SDS_P2;PMS_P1;PMS_P2;Temp;Humidity;BMP_temperature;BMP_pressure;BME280_temperature;BME280_humidity;BME280_pressure;Samples;Min_cycle;Max_cycle;Signal;HPM_P1;HPM_P2
2022/05/07 00:02:11;;;;;;;6.07;5.47;;;19.10;57.60;;;;;;5010800;28;92409;-63
2022/05/07 00:04:37;;;;;;;6.10;5.50;;;19.10;57.60;;;;;;5010943;28;93646;-62
2022/05/07 00:07:07;;;;;;;6.22;5.40;;;19.10;57.70;;;;;;5011312;28;92802;-64
2022/05/07 00:09:34;;;;;;;5.78;5.15;;;19.10;57.60;;;;;;4992781;28;92573;-64
2022/05/07 00:12:00;;;;;;;5.75;5.15;;;19.10;57.60;;;;;;4992837;28;92603;-64
2022/05/07 00:14:26;;;;;;;5.68;5.05;;;19.10;57.60;;;;;;4990808;28;95501;-65
2022/05/07 00:19:36;;;;;;;5.30;4.85;;;19.10;57.50;;;;;;5010444;28;92765;-64
2022/05/07 00:22:02;;;;;;;5.63;4.93;;;19.10;57.60;;;;;;5010423;28;92933;-64
2022/05/07 00:24:28;;;;;;;6.03;5.28;;;19.10;57.50;;;;;;5010233;28;94351;-64
2022/05/07 00:26:53;;;;;;;5.35;4.85;;;19.10;57.50;;;;;;5010039;28;92747;-65
2022/05/07 00:29:19;;;;;;;7.65;5.25;;;19.00;57.40;;;;;;5008679;28;92990;-64
2022/05/07 00:31:45;;;;;;;6.05;4.90;;;19.10;57.40;;;;;;5010682;28;91929;-65
2022/05/07 00:34:11;;;;;;;6.70;5.32;;;19.10;57.40;;;;;;5009923;28;93158;-64
2022/05/07 00:36:36;;;;;;;5.93;5.22;;;19.10;57.40;;;;;;4991320;28;92552;-64
2022/05/07 00:39:03;;;;;;;5.68;5.07;;;19.10;57.40;;;;;;5008530;28;94951;-64
2022/05/07 00:41:29;;;;;;;6.22;5.50;;;19.10;57.40;;;;;;4975246;28;93235;-64
2022/05/07 00:43:55;;;;;;;5.32;4.82;;;19.10;57.40;;;;;;5009852;28;92893;-64
2022/05/07 00:46:25;;;;;;;5.75;5.00;;;19.00;57.30;;;;;;5009484;28;93161;-65
2022/05/07 00:48:52;;;;;;;6.18;5.13;;;19.00;57.30;;;;;;5008758;28;92506;-65
2022/05/07 00:51:34;;;;;;;5.47;4.90;;;19.00;57.30;;;;;;5009449;28;92750;-64
2022/05/07 00:54:04;;;;;;;6.18;5.10;;;19.10;57.30;;;;;;5009471;28;92580;-64
2022/05/07 00:56:31;;;;;;;5.63;5.13;;;19.10;57.30;;;;;;5010296;28;92561;-63
2022/05/07 00:58:57;;;;;;;5.57;5.07;;;19.00;57.40;;;;;;5010142;28;92832;-65
2022/05/07 01:01:23;;;;;;;6.07;5.47;;;19.00;57.30;;;;;;4992311;28;92729;-63
2022/05/07 01:03:49;;;;;;;5.22;4.72;;;19.00;57.30;;;;;;5013157;28;95699;-64
2022/05/07 01:06:15;;;;;;;5.90;4.97;;;19.10;57.30;;;;;;5012944;28;95151;-64
2022/05/07 01:08:41;;;;;;;5.47;4.82;;;19.00;57.30;;;;;;5013929;28;92889;-65
2022/05/07 01:11:07;;;;;;;7.70;5.85;;;19.00;57.20;;;;;;5013513;28;92505;-62
2022/05/07 01:13:33;;;;;;;5.68;5.07;;;19.00;57.20;;;;;;5013359;28;93329;-63
2022/05/07 01:15:59;;;;;;;5.93;5.28;;;19.00;57.20;;;;;;4978200;28;93142;-64
2022/05/07 01:18:24;;;;;;;5.47;4.90;;;19.00;57.20;;;;;;5013063;28;92460;-64
2022/05/07 01:20:51;;;;;;;6.78;5.32;;;19.00;57.20;;;;;;5014083;28;91674;-64
2022/05/07 01:23:17;;;;;;;5.82;5.22;;;19.00;57.20;;;;;;5013346;28;94010;-64
2022/05/07 01:25:42;;;;;;;5.50;5.00;;;19.00;57.10;;;;;;5013776;28;92929;-64
2022/05/07 01:28:08;;;;;;;5.20;4.70;;;19.00;57.20;;;;;;5012254;28;94918;-64
2022/05/07 01:30:34;;;;;;;6.65;5.32;;;19.00;57.20;;;;;;4994615;28;92571;-63
2022/05/07 01:33:00;;;;;;;5.60;5.03;;;19.00;57.20;;;;;;5013353;28;92493;-64
2022/05/07 01:35:26;;;;;;;6.00;5.40;;;19.00;57.10;;;;;;5012835;28;92561;-64
2022/05/07 01:37:52;;;;;;;6.30;5.68;;;19.00;57.20;;;;;;5011255;28;93041;-63
2022/05/07 01:40:17;;;;;;;6.35;5.63;;;19.00;57.20;;;;;;5011752;28;93058;-64
2022/05/07 01:42:43;;;;;;;6.05;5.45;;;19.00;57.20;;;;;;5013230;28;92859;-64
2022/05/07 01:45:09;;;;;;;6.60;5.90;;;19.00;57.10;;;;;;5014086;28;92409;-64
2022/05/07 01:50:23;;;;;;;5.75;5.25;;;19.00;57.10;;;;;;5013121;28;92668;-64
2022/05/07 01:52:48;;;;;;;6.18;5.15;;;18.90;57.20;;;;;;5011212;28;95364;-65
2022/05/07 01:55:14;;;;;;;6.38;5.75;;;18.90;57.10;;;;;;5012667;28;95124;-63
2022/05/07 01:57:39;;;;;;;5.82;5.22;;;18.90;57.10;;;;;;5012569;28;92960;-65
2022/05/07 02:00:06;;;;;;;7.50;5.32;;;18.90;57.10;;;;;;5012959;28;92510;-65
2022/05/07 02:02:31;;;;;;;6.00;5.15;;;19.00;57.10;;;;;;5012925;28;92885;-65
2022/05/07 02:04:57;;;;;;;6.78;5.68;;;18.90;57.10;;;;;;5012080;28;93068;-65
2022/05/07 02:07:22;;;;;;;6.38;5.72;;;19.00;57.20;;;;;;5012298;28;92765;-63
2022/05/07 02:09:48;;;;;;;6.78;5.50;;;18.90;57.10;;;;;;5012378;28;97679;-64
2022/05/07 02:12:14;;;;;;;6.75;6.05;;;19.00;57.10;;;;;;5010464;28;95107;-64
2022/05/07 02:14:39;;;;;;;6.97;5.88;;;19.00;57.10;;;;;;5011080;28;92997;-65
2022/05/07 02:17:05;;;;;;;7.07;6.15;;;18.90;57.10;;;;;;5011541;28;94941;-63
2022/05/07 02:19:30;;;;;;;6.78;6.05;;;19.00;57.10;;;;;;5010717;28;92671;-64
2022/05/07 02:21:56;;;;;;;6.20;5.60;;;18.90;57.10;;;;;;5011803;28;105324;-64
2022/05/07 02:24:22;;;;;;;6.28;5.70;;;18.90;57.00;;;;;;5010506;28;92788;-65
2022/05/07 02:26:47;;;;;;;7.00;6.30;;;18.90;57.10;;;;;;4994458;28;92614;-64
2022/05/07 02:29:14;;;;;;;6.07;5.47;;;18.90;57.00;;;;;;4994280;28;92459;-65
2022/05/07 02:31:40;;;;;;;6.70;6.00;;;18.90;57.10;;;;;;5012113;28;93118;-64
2022/05/07 02:34:06;;;;;;;6.82;6.13;;;18.90;57.10;;;;;;5010968;28;94435;-64
2022/05/07 02:36:32;;;;;;;6.97;5.90;;;18.90;57.00;;;;;;5012493;28;92486;-64
2022/05/07 02:38:59;;;;;;;7.60;5.75;;;18.90;58.00;;;;;;5012117;28;92709;-64
2022/05/07 02:44:09;;;;;;;6.18;5.63;;;18.90;57.00;;;;;;5011873;28;94816;-65
2022/05/07 02:46:35;;;;;;;6.20;5.70;;;18.90;57.10;;;;;;5012642;28;92799;-64
2022/05/07 02:49:00;;;;;;;6.30;5.70;;;18.90;57.00;;;;;;5012538;28;92588;-65
2022/05/07 02:51:26;;;;;;;6.97;5.82;;;18.90;57.00;;;;;;5011472;28;93057;-66
2022/05/07 02:53:52;;;;;;;6.50;5.90;;;18.90;57.00;;;;;;5011785;28;92922;-64
2022/05/07 02:56:18;;;;;;;6.28;5.68;;;18.90;57.00;;;;;;5011794;28;92519;-65
2022/05/07 02:58:43;;;;;;;6.53;5.93;;;18.90;57.00;;;;;;5011379;28;94943;-64
2022/05/07 03:01:09;;;;;;;6.30;5.70;;;18.90;57.00;;;;;;5011293;28;93158;-64
2022/05/07 03:03:34;;;;;;;6.45;5.85;;;18.90;57.00;;;;;;5011872;28;92775;-64
2022/05/07 03:06:00;;;;;;;6.97;6.28;;;18.90;57.00;;;;;;5010203;28;95266;-65
2022/05/07 03:08:26;;;;;;;7.22;6.47;;;18.90;57.10;;;;;;5010359;28;92537;-64
2022/05/07 03:10:52;;;;;;;6.30;5.70;;;18.90;57.10;;;;;;4993704;28;93062;-64
2022/05/07 03:13:18;;;;;;;5.70;5.20;;;18.90;57.00;;;;;;5011395;28;93059;-64
2022/05/07 03:15:44;;;;;;;6.22;5.68;;;18.90;57.00;;;;;;5011622;28;93180;-64
2022/05/07 03:18:12;;;;;;;6.03;5.43;;;18.90;57.00;;;;;;5011282;28;92471;-65
2022/05/07 03:20:38;;;;;;;6.20;5.60;;;18.80;56.90;;;;;;5010904;28;92964;-64
2022/05/07 03:23:04;;;;;;;6.22;5.65;;;18.90;57.00;;;;;;5011088;28;92915;-64
2022/05/07 03:25:29;;;;;;;6.18;5.57;;;18.90;57.00;;;;;;5011194;28;93190;-64
2022/05/07 03:27:55;;;;;;;6.28;5.68;;;18.90;57.00;;;;;;5008662;28;92711;-65
2022/05/07 03:30:21;;;;;;;6.55;5.95;;;18.80;56.90;;;;;;5009957;28;99748;-64
2022/05/07 03:32:46;;;;;;;6.10;5.50;;;18.80;56.90;;;;;;5011308;28;94874;-63
2022/05/07 03:35:12;;;;;;;6.07;5.55;;;18.90;57.00;;;;;;5010634;28;92504;-63
2022/05/07 03:37:37;;;;;;;5.97;5.38;;;18.80;57.00;;;;;;5011334;28;92519;-63
2022/05/07 03:40:04;;;;;;;6.80;6.10;;;18.80;57.00;;;;;;5010839;28;93586;-64
2022/05/07 03:42:33;;;;;;;6.13;5.45;;;18.80;57.00;;;;;;5010970;28;93297;-63
2022/05/07 03:44:59;;;;;;;6.28;5.70;;;18.80;56.90;;;;;;5009103;28;92540;-63
2022/05/07 03:47:25;;;;;;;6.47;5.88;;;18.90;57.00;;;;;;5011660;28;92437;-64
2022/05/07 03:49:50;;;;;;;5.90;5.40;;;18.80;56.90;;;;;;5009988;28;92764;-63
2022/05/07 03:55:00;;;;;;;6.40;5.80;;;18.80;56.90;;;;;;5009853;28;94890;-63
2022/05/07 03:57:25;;;;;;;5.70;5.20;;;18.80;57.00;;;;;;5010496;28;92508;-63
2022/05/07 03:59:51;;;;;;;6.18;5.68;;;18.80;56.90;;;;;;5010885;28;93824;-63
2022/05/07 04:02:16;;;;;;;6.30;5.75;;;18.80;57.00;;;;;;5010022;28;93036;-63
2022/05/07 04:04:43;;;;;;;5.88;5.28;;;18.80;56.90;;;;;;5009868;28;92537;-64
2022/05/07 04:07:09;;;;;;;6.05;5.55;;;18.80;57.00;;;;;;5011167;28;93219;-64
2022/05/07 04:09:36;;;;;;;6.38;5.78;;;18.80;57.00;;;;;;5010557;28;92675;-64
2022/05/07 04:12:01;;;;;;;6.40;5.80;;;18.80;57.00;;;;;;5010730;28;93108;-64
2022/05/07 04:14:27;;;;;;;5.95;5.35;;;18.80;57.00;;;;;;5010631;28;93072;-64
2022/05/07 04:16:53;;;;;;;6.80;5.85;;;18.80;57.00;;;;;;5009758;28;92503;-64
2022/05/07 04:19:19;;;;;;;6.18;5.53;;;18.80;57.00;;;;;;5009310;28;95329;-64
2022/05/07 04:21:44;;;;;;;7.32;5.57;;;18.80;57.00;;;;;;5010170;28;95013;-64
2022/05/07 04:24:10;;;;;;;6.05;5.45;;;18.80;57.00;;;;;;5009927;28;92554;-63
2022/05/07 04:26:35;;;;;;;6.40;5.80;;;18.80;57.10;;;;;;5010897;28;93365;-64
2022/05/07 04:29:01;;;;;;;5.88;5.38;;;18.80;57.00;;;;;;5009672;28;94158;-63
2022/05/07 04:31:26;;;;;;;5.70;5.20;;;18.80;57.00;;;;;;5010532;28;93263;-64
2022/05/07 04:33:52;;;;;;;6.97;5.80;;;18.80;58.00;;;;;;5010570;28;92560;-64
2022/05/07 04:36:17;;;;;;;7.00;5.80;;;18.80;57.10;;;;;;5008750;28;91760;-64
2022/05/07 04:38:43;;;;;;;6.32;5.72;;;18.80;57.00;;;;;;5010103;28;93307;-64
2022/05/07 04:41:09;;;;;;;8.75;6.35;;;18.80;57.00;;;;;;5010060;28;96818;-63
2022/05/07 04:43:34;;;;;;;7.03;5.93;;;18.80;57.50;;;;;;5009737;28;95229;-64
2022/05/07 04:46:00;;;;;;;7.80;6.28;;;18.80;57.80;;;;;;5010736;28;92619;-64
2022/05/07 04:48:25;;;;;;;7.75;6.07;;;18.80;57.80;;;;;;5008131;28;93578;-65
2022/05/07 04:50:51;;;;;;;6.85;6.07;;;18.80;57.80;;;;;;5010477;28;92739;-65
2022/05/07 04:53:16;;;;;;;7.00;6.30;;;18.80;57.80;;;;;;5010634;28;92543;-65
2022/05/07 04:55:42;;;;;;;6.53;5.93;;;18.80;57.90;;;;;;5010807;28;93031;-64
2022/05/07 04:58:07;;;;;;;6.30;5.78;;;18.80;58.00;;;;;;5010526;28;93098;-64
2022/05/07 05:00:33;;;;;;;6.75;6.05;;;18.80;57.80;;;;;;5010608;28;95040;-64
2022/05/07 05:02:59;;;;;;;7.13;6.38;;;18.80;58.00;;;;;;5009727;28;94358;-64
2022/05/07 05:05:29;;;;;;;7.82;6.47;;;18.90;58.10;;;;;;5009362;28;92527;-64
2022/05/07 05:07:54;;;;;;;7.28;6.20;;;18.90;58.10;;;;;;5008381;28;96588;-64
2022/05/07 05:10:20;;;;;;;7.45;6.22;;;18.90;58.00;;;;;;5009686;28;95162;-64
2022/05/07 05:12:46;;;;;;;6.80;6.10;;;18.90;58.00;;;;;;4991759;28;92523;-64
2022/05/07 05:15:13;;;;;;;6.63;6.03;;;18.90;58.10;;;;;;5010578;28;92482;-64
2022/05/07 05:17:39;;;;;;;6.80;6.20;;;18.90;58.10;;;;;;5010439;28;93037;-64
2022/05/07 05:20:05;;;;;;;10.13;6.18;;;18.90;58.10;;;;;;5010598;28;92786;-65
2022/05/07 05:22:31;;;;;;;6.55;5.82;;;18.90;58.10;;;;;;5009632;28;92842;-65
2022/05/07 05:24:57;;;;;;;7.13;6.38;;;18.90;58.10;;;;;;4992043;28;92418;-64
2022/05/07 05:27:23;;;;;;;6.88;6.18;;;18.90;58.10;;;;;;4991462;28;93281;-65
2022/05/07 05:29:49;;;;;;;7.07;6.15;;;18.90;58.20;;;;;;4991483;28;95402;-64
2022/05/07 05:32:17;;;;;;;7.60;5.88;;;18.90;58.20;;;;;;5009129;28;95322;-64
2022/05/07 05:34:47;;;;;;;9.02;6.05;;;18.90;58.20;;;;;;5009397;28;92484;-64
2022/05/07 05:37:14;;;;;;;14.65;6.30;;;18.90;58.30;;;;;;5009867;28;92912;-64
2022/05/07 05:39:40;;;;;;;7.75;6.10;;;18.90;58.20;;;;;;5010285;28;92989;-64
2022/05/07 05:42:06;;;;;;;9.65;6.22;;;18.90;58.50;;;;;;5009489;28;92505;-64
2022/05/07 05:44:34;;;;;;;7.57;6.15;;;18.90;58.50;;;;;;5009675;28;92513;-63
2022/05/07 05:47:00;;;;;;;7.10;5.90;;;19.00;58.50;;;;;;5010445;28;93136;-64
2022/05/07 05:49:25;;;;;;;8.20;6.10;;;19.00;58.60;;;;;;5013105;28;92712;-65
2022/05/07 05:51:51;;;;;;;7.00;6.22;;;19.00;58.60;;;;;;5014025;28;92545;-65
2022/05/07 05:54:16;;;;;;;8.65;6.10;;;19.00;58.70;;;;;;5013325;28;92487;-64
2022/05/07 05:56:42;;;;;;;6.63;5.47;;;19.00;58.70;;;;;;5011130;28;103026;-64
2022/05/07 05:59:07;;;;;;;6.45;5.88;;;19.00;58.90;;;;;;5012626;28;94427;-64
2022/05/07 06:01:33;;;;;;;7.03;6.03;;;19.00;58.90;;;;;;5010468;28;93086;-64
2022/05/07 06:03:58;;;;;;;10.38;6.03;;;19.00;58.90;;;;;;5013281;28;92565;-63
2022/05/07 06:06:24;;;;;;;7.65;5.47;;;19.00;58.90;;;;;;5012186;28;95651;-65
2022/05/07 06:08:50;;;;;;;7.13;5.60;;;19.00;59.00;;;;;;5012854;28;92659;-64
2022/05/07 06:11:15;;;;;;;9.20;5.53;;;19.00;58.90;;;;;;5010377;28;92685;-65
2022/05/07 06:13:43;;;;;;;6.63;5.35;;;19.00;58.90;;;;;;5013347;28;91718;-65
2022/05/07 06:16:09;;;;;;;6.75;6.05;;;19.00;58.90;;;;;;5012545;28;92954;-64
2022/05/07 06:18:34;;;;;;;6.20;5.70;;;19.10;59.00;;;;;;5012618;28;92480;-64
2022/05/07 06:21:02;;;;;;;9.82;5.45;;;19.10;59.10;;;;;;5011789;28;95168;-64
2022/05/07 06:23:29;;;;;;;9.07;5.50;;;19.10;59.30;;;;;;5011640;28;92490;-65
2022/05/07 06:28:38;;;;;;;7.78;5.50;;;19.10;59.10;;;;;;5013076;28;93299;-68
2022/05/07 06:31:04;;;;;;;7.88;5.75;;;19.10;59.30;;;;;;5013150;28;93060;-64
2022/05/07 06:33:29;;;;;;;7.82;5.47;;;19.10;59.30;;;;;;5010429;28;92842;-66
2022/05/07 06:35:55;;;;;;;6.80;5.90;;;19.10;59.30;;;;;;5012206;28;93112;-64
2022/05/07 06:38:22;;;;;;;7.25;5.18;;;19.10;59.30;;;;;;5012029;28;94634;-64
2022/05/07 06:40:47;;;;;;;11.02;5.53;;;19.10;59.30;;;;;;5012108;28;92984;-64
2022/05/07 06:43:13;;;;;;;8.40;5.63;;;19.10;59.40;;;;;;5010083;28;92524;-64
2022/05/07 06:45:40;;;;;;;8.77;5.50;;;19.10;59.50;;;;;;5011314;28;95516;-64
2022/05/07 06:48:08;;;;;;;12.50;5.72;;;19.10;59.50;;;;;;5012128;28;96227;-64
2022/05/07 06:50:34;;;;;;;7.60;5.65;;;19.10;59.60;;;;;;4993742;28;92595;-64
2022/05/07 06:53:00;;;;;;;7.95;5.47;;;19.10;59.40;;;;;;5011368;28;92545;-64
2022/05/07 06:55:25;;;;;;;9.90;4.95;;;19.10;59.20;;;;;;5009376;28;94999;-64
2022/05/07 06:57:53;;;;;;;6.47;5.03;;;19.10;59.10;;;;;;5011644;28;92781;-64
2022/05/07 07:00:18;;;;;;;5.70;5.03;;;19.10;59.10;;;;;;5011352;28;92980;-63
2022/05/07 07:02:44;;;;;;;6.95;5.05;;;19.10;59.00;;;;;;5010092;28;92453;-64
2022/05/07 07:05:10;;;;;;;6.30;4.70;;;19.10;58.90;;;;;;5010569;28;92428;-64
2022/05/07 07:07:36;;;;;;;8.50;5.65;;;19.10;59.00;;;;;;5011276;28;92666;-63
2022/05/07 07:10:01;;;;;;;7.68;5.70;;;19.10;59.10;;;;;;5010034;28;94980;-64
2022/05/07 07:12:28;;;;;;;6.93;5.60;;;19.10;59.20;;;;;;5011423;28;92571;-64
2022/05/07 07:14:54;;;;;;;8.02;5.80;;;19.10;59.50;;;;;;5011137;28;93182;-64
2022/05/07 07:17:20;;;;;;;10.75;5.55;;;19.10;60.70;;;;;;5010540;28;92677;-63
2022/05/07 07:19:46;;;;;;;8.68;5.95;;;19.10;59.80;;;;;;5011667;28;92681;-64
2022/05/07 07:22:12;;;;;;;8.20;5.28;;;19.10;59.90;;;;;;5011191;28;92419;-64
2022/05/07 07:24:38;;;;;;;17.02;6.03;;;19.10;60.00;;;;;;4993242;28;93219;-64
2022/05/07 07:27:05;;;;;;;14.15;5.88;;;19.20;60.00;;;;;;4992111;28;93292;-64
2022/05/07 07:29:30;;;;;;;17.60;5.95;;;19.20;60.00;;;;;;5010328;28;92725;-63
2022/05/07 07:31:56;;;;;;;17.50;5.70;;;19.20;60.00;;;;;;5011050;28;92812;-63
2022/05/07 07:34:22;;;;;;;11.50;4.97;;;19.20;60.00;;;;;;5009016;28;95393;-63
2022/05/07 07:36:51;;;;;;;10.90;5.25;;;19.20;60.10;;;;;;5010792;28;95438;-63
2022/05/07 07:39:17;;;;;;;13.13;5.88;;;19.20;60.10;;;;;;5010541;28;92580;-64
2022/05/07 07:41:43;;;;;;;11.20;5.72;;;19.20;60.20;;;;;;4987393;28;94167;-64
2022/05/07 07:44:09;;;;;;;10.40;5.20;;;19.20;60.20;;;;;;4988006;28;92979;-64
2022/05/07 07:49:19;;;;;;;14.13;5.72;;;19.20;60.10;;;;;;4988988;28;92845;-63
2022/05/07 07:51:45;;;;;;;11.48;5.90;;;19.20;60.20;;;;;;4989659;28;91812;-64
2022/05/07 07:54:11;;;;;;;9.90;5.97;;;19.20;60.20;;;;;;4995110;28;93213;-63
2022/05/07 07:56:36;;;;;;;9.18;5.45;;;19.20;60.20;;;;;;4992490;28;93243;-63
2022/05/07 07:59:02;;;;;;;12.18;6.47;;;19.20;60.20;;;;;;4989209;28;95435;-63
2022/05/07 08:01:28;;;;;;;8.95;5.88;;;19.20;60.20;;;;;;4990611;28;92619;-63
2022/05/07 08:03:53;;;;;;;10.00;6.07;;;19.20;60.20;;;;;;4990372;28;92954;-63
2022/05/07 08:06:19;;;;;;;11.95;6.05;;;19.20;60.20;;;;;;4988937;28;92703;-63
2022/05/07 08:11:41;;;;;;;10.00;5.80;;;19.20;60.20;;;;;;4988608;28;92841;-63
2022/05/07 08:14:08;;;;;;;14.25;6.75;;;19.20;60.20;;;;;;4990236;28;92936;-62
2022/05/07 08:16:34;;;;;;;13.45;7.35;;;19.20;60.20;;;;;;4971950;28;92903;-62
2022/05/07 08:19:00;;;;;;;12.70;6.75;;;19.20;60.10;;;;;;4991065;28;92525;-62
2022/05/07 08:21:26;;;;;;;10.95;6.18;;;19.20;60.10;;;;;;4989998;28;92543;-63
2022/05/07 08:23:52;;;;;;;13.45;6.55;;;19.20;60.00;;;;;;4989343;28;95982;-62
2022/05/07 08:26:18;;;;;;;13.80;7.45;;;19.20;60.00;;;;;;4990440;28;95045;-63
2022/05/07 08:28:44;;;;;;;13.18;6.65;;;19.20;60.00;;;;;;4972133;28;92472;-63
2022/05/07 08:31:10;;;;;;;14.25;7.70;;;19.20;60.00;;;;;;4971868;28;92668;-62
2022/05/07 08:33:40;;;;;;;17.08;7.43;;;19.20;60.00;;;;;;4972175;28;94100;-66
2022/05/07 08:36:07;;;;;;;13.32;7.03;;;19.20;61.10;;;;;;4989654;28;92913;-65
2022/05/07 08:38:32;;;;;;;16.52;7.10;;;19.20;60.10;;;;;;4990979;28;93046;-66
2022/05/07 08:41:00;;;;;;;13.60;6.88;;;19.20;60.20;;;;;;4990001;28;91762;-66
2022/05/07 08:43:30;;;;;;;11.45;7.25;;;19.20;60.20;;;;;;4989636;28;93072;-64
2022/05/07 08:45:56;;;;;;;9.77;7.03;;;19.20;60.40;;;;;;4990197;28;92846;-64
2022/05/07 08:48:22;;;;;;;13.27;7.65;;;19.20;60.30;;;;;;4987469;28;95358;-65
2022/05/07 08:50:49;;;;;;;12.88;7.72;;;19.20;60.40;;;;;;4990232;28;92677;-65
2022/05/07 08:53:15;;;;;;;10.95;7.50;;;19.20;60.40;;;;;;4989438;28;92885;-65
2022/05/07 08:55:41;;;;;;;11.75;7.18;;;19.20;60.50;;;;;;4971176;28;94618;-66
2022/05/07 08:58:06;;;;;;;11.48;7.22;;;19.30;60.50;;;;;;4990077;28;92924;-66
2022/05/07 09:00:33;;;;;;;11.10;7.25;;;19.30;60.60;;;;;;4990006;28;92622;-65
2022/05/07 09:03:01;;;;;;;11.93;7.20;;;19.30;60.60;;;;;;4989916;28;93889;-65
2022/05/07 09:05:37;;;;;;;12.00;7.57;;;19.30;60.60;;;;;;4971023;28;93154;-65
2022/05/07 09:08:05;;;;;;;13.73;7.20;;;19.30;60.60;;;;;;4971898;28;93160;-65
2022/05/07 09:10:32;;;;;;;14.80;8.02;;;19.30;60.60;;;;;;4989793;28;92580;-65
2022/05/07 09:13:10;;;;;;;12.43;7.53;;;19.30;60.60;;;;;;4988901;28;96340;-65
2022/05/07 09:15:37;;;;;;;10.02;7.18;;;19.30;60.60;;;;;;4988868;28;95325;-65
2022/05/07 09:18:13;;;;;;;10.93;7.00;;;19.30;60.60;;;;;;4971809;28;92585;-66
2022/05/07 09:20:39;;;;;;;17.13;7.45;;;19.30;60.60;;;;;;4989519;28;92554;-65
2022/05/07 09:23:04;;;;;;;13.43;7.88;;;19.30;60.70;;;;;;4991458;28;93110;-65
2022/05/07 09:25:30;;;;;;;12.45;7.40;;;19.40;60.70;;;;;;4974534;28;93425;-66
2022/05/07 09:27:59;;;;;;;12.05;7.53;;;19.40;60.70;;;;;;4993261;28;92967;-65
2022/05/07 09:30:30;;;;;;;11.15;7.25;;;19.40;60.70;;;;;;4991960;28;92202;-65
2022/05/07 09:32:56;;;;;;;11.07;7.32;;;19.40;60.70;;;;;;4993042;28;93142;-65
2022/05/07 09:38:12;;;;;;;10.73;7.50;;;19.40;60.50;;;;;;4999099;28;94907;-64
2022/05/07 09:40:39;;;;;;;10.43;7.65;;;19.40;60.60;;;;;;4992887;28;92980;-65
2022/05/07 09:43:05;;;;;;;11.18;7.68;;;19.40;60.60;;;;;;4974782;28;95118;-65
2022/05/07 09:45:31;;;;;;;9.75;7.50;;;19.40;60.60;;;;;;4974316;28;93034;-65
2022/05/07 09:48:00;;;;;;;12.18;7.82;;;19.40;60.60;;;;;;4992470;28;92487;-65
2022/05/07 09:58:44;;;;;;;10.73;7.75;;;19.40;60.50;;;;;;4985311;28;92545;-66
2022/05/07 10:01:20;;;;;;;11.35;7.47;;;19.40;60.60;;;;;;4992528;28;92573;-66
2022/05/07 10:04:06;;;;;;;11.23;7.60;;;19.40;60.50;;;;;;4989882;28;95325;-66
2022/05/07 10:07:09;;;;;;;14.88;9.10;;;19.40;60.50;;;;;;4992137;28;95038;-66
2022/05/07 10:10:02;;;;;;;21.40;12.88;;;19.40;60.30;;;;;;4991725;28;92834;-65
2022/05/07 10:12:28;;;;;;;27.25;15.48;;;19.40;60.50;;;;;;4992410;28;93030;-65
2022/05/07 10:15:05;;;;;;;23.52;14.07;;;19.30;60.50;;;;;;4992153;28;93328;-65
2022/05/07 10:17:30;;;;;;;23.40;14.88;;;19.40;60.50;;;;;;4972727;28;94912;-65
2022/05/07 10:20:12;;;;;;;23.80;14.10;;;19.40;60.40;;;;;;4991903;28;93095;-65
2022/05/07 10:22:37;;;;;;;20.38;14.18;;;19.40;60.40;;;;;;4992081;28;92285;-66
2022/05/07 10:25:11;;;;;;;22.95;14.70;;;19.40;60.40;;;;;;4991014;28;92999;-65
2022/05/07 10:27:38;;;;;;;22.05;14.95;;;19.40;60.40;;;;;;4991563;28;93931;-65
2022/05/07 10:30:05;;;;;;;25.27;15.23;;;19.30;60.30;;;;;;4972569;28;95100;-65
2022/05/07 10:32:30;;;;;;;24.50;14.75;;;19.40;60.40;;;;;;4991530;28;92842;-67
2022/05/07 10:34:56;;;;;;;22.77;14.75;;;19.30;60.30;;;;;;4990993;28;93038;-65
2022/05/07 10:37:22;;;;;;;23.80;14.18;;;19.40;60.40;;;;;;4991191;28;93283;-65
2022/05/07 10:39:52;;;;;;;20.23;13.90;;;19.30;60.30;;;;;;4991952;28;92979;-66
2022/05/07 10:42:19;;;;;;;22.65;14.40;;;19.40;60.30;;;;;;4973615;28;92916;-64
2022/05/07 10:44:45;;;;;;;21.02;13.95;;;19.30;60.30;;;;;;4990330;28;93986;-64
2022/05/07 10:47:13;;;;;;;19.92;13.70;;;19.40;60.30;;;;;;4991640;28;93359;-64
2022/05/07 10:49:56;;;;;;;23.27;14.95;;;19.30;60.20;;;;;;4990102;28;92980;-65
2022/05/07 10:52:33;;;;;;;19.35;13.80;;;19.40;60.20;;;;;;4972587;28;92579;-65
2022/05/07 10:55:05;;;;;;;20.88;13.63;;;19.40;60.30;;;;;;4971374;28;95702;-64
2022/05/07 10:57:42;;;;;;;18.15;12.35;;;19.40;60.30;;;;;;4990538;28;95254;-65
2022/05/07 11:00:19;;;;;;;20.67;13.77;;;19.40;60.30;;;;;;4990904;28;92475;-66
2022/05/07 11:02:48;;;;;;;19.45;12.48;;;19.40;60.30;;;;;;4990750;28;92571;-65
2022/05/07 11:05:15;;;;;;;19.10;13.38;;;19.40;60.30;;;;;;4971489;28;95423;-64
2022/05/07 11:07:43;;;;;;;17.77;13.40;;;19.40;60.30;;;;;;4990683;28;93272;-65
2022/05/07 11:10:10;;;;;;;18.85;13.15;;;19.40;60.30;;;;;;4988892;28;92876;-65
2022/05/07 11:12:38;;;;;;;17.00;12.68;;;19.40;60.20;;;;;;4991297;28;92181;-65
2022/05/07 11:15:07;;;;;;;19.10;13.25;;;19.40;60.20;;;;;;4991163;28;92949;-65
2022/05/07 11:17:35;;;;;;;18.38;12.77;;;19.40;60.20;;;;;;4990305;28;92904;-65
2022/05/07 11:20:04;;;;;;;17.15;12.43;;;19.40;60.20;;;;;;4988520;28;95032;-65
2022/05/07 11:22:30;;;;;;;20.13;13.43;;;19.40;60.10;;;;;;4990924;28;92971;-65
2022/05/07 11:25:00;;;;;;;18.70;12.65;;;19.40;60.10;;;;;;4990761;28;93035;-65
2022/05/07 11:27:29;;;;;;;18.05;12.75;;;19.40;60.10;;;;;;4990411;28;92774;-64
2022/05/07 11:29:56;;;;;;;17.65;12.40;;;19.50;60.20;;;;;;4991381;28;92478;-65
2022/05/07 11:32:22;;;;;;;16.08;12.63;;;19.40;60.10;;;;;;4972702;28;92489;-65
2022/05/07 11:34:52;;;;;;;17.98;13.35;;;19.40;60.10;;;;;;4990517;28;93039;-65
2022/05/07 11:37:23;;;;;;;18.40;12.68;;;19.50;60.20;;;;;;4972622;28;93148;-65
2022/05/07 11:39:50;;;;;;;15.77;12.20;;;19.50;60.20;;;;;;4991076;28;92737;-66
2022/05/07 11:42:32;;;;;;;17.10;11.65;;;19.50;60.20;;;;;;4990635;28;92461;-65
2022/05/07 11:47:55;;;;;;;15.93;12.65;;;19.50;60.10;;;;;;4990628;28;95476;-66
2022/05/07 11:50:23;;;;;;;17.08;12.55;;;19.50;60.10;;;;;;4972209;28;92572;-65
2022/05/07 11:52:49;;;;;;;16.23;12.07;;;19.50;60.10;;;;;;4990803;28;92504;-66
2022/05/07 11:55:17;;;;;;;15.73;11.93;;;19.50;60.10;;;;;;4989795;28;93980;-65
2022/05/07 11:57:46;;;;;;;17.23;12.05;;;19.50;60.20;;;;;;4989877;28;93221;-65
2022/05/07 12:00:25;;;;;;;16.50;12.07;;;19.50;60.20;;;;;;4990137;28;92711;-66
2022/05/07 12:02:56;;;;;;;15.48;11.98;;;19.50;60.10;;;;;;4972097;28;92167;-66
2022/05/07 12:05:23;;;;;;;16.20;11.57;;;19.50;60.10;;;;;;4989344;28;93254;-65
2022/05/07 12:07:50;;;;;;;16.00;12.18;;;19.50;60.20;;;;;;4990562;28;92844;-65
2022/05/07 12:10:17;;;;;;;16.95;11.65;;;19.50;60.10;;;;;;4970328;28;95432;-65
2022/05/07 12:12:47;;;;;;;15.57;11.90;;;19.50;60.10;;;;;;4988930;28;92521;-65
2022/05/07 12:15:12;;;;;;;17.88;11.45;;;19.50;60.10;;;;;;4990230;28;93021;-65
2022/05/07 12:17:55;;;;;;;14.00;11.68;;;19.50;60.10;;;;;;4989441;28;92852;-66
2022/05/07 12:20:23;;;;;;;15.80;11.25;;;19.60;60.10;;;;;;4989733;28;92468;-65
2022/05/07 12:31:04;;;;;;;14.88;11.25;;;19.60;60.10;;;;;;4990465;28;92960;-65
2022/05/07 12:33:30;;;;;;;14.82;11.52;;;19.50;60.10;;;;;;4989801;28;92555;-65
2022/05/07 12:35:56;;;;;;;12.68;10.63;;;19.60;60.10;;;;;;4988137;28;95578;-65
2022/05/07 12:38:21;;;;;;;13.25;11.00;;;19.60;60.10;;;;;;4989504;28;95146;-65
2022/05/07 12:40:47;;;;;;;16.77;10.93;;;19.60;60.10;;;;;;4989743;28;92740;-65
2022/05/07 12:43:12;;;;;;;15.13;10.68;;;19.60;60.10;;;;;;4990406;28;92933;-64
2022/05/07 12:45:38;;;;;;;13.32;10.52;;;19.60;60.10;;;;;;4970680;28;103562;-65
2022/05/07 12:48:04;;;;;;;14.32;10.63;;;19.60;60.10;;;;;;4989774;28;92499;-64
2022/05/07 12:50:29;;;;;;;13.07;10.05;;;19.60;60.10;;;;;;4989579;28;92567;-65
2022/05/07 12:52:55;;;;;;;14.60;10.90;;;19.60;60.00;;;;;;4971995;28;92121;-65
2022/05/07 12:55:21;;;;;;;13.18;10.65;;;19.60;60.00;;;;;;4989221;28;93071;-65
2022/05/07 12:57:47;;;;;;;13.60;10.23;;;19.60;60.00;;;;;;4988608;28;93318;-65
2022/05/07 13:00:13;;;;;;;14.93;10.30;;;19.70;60.10;;;;;;4987008;28;95391;-65
2022/05/07 13:02:39;;;;;;;13.48;10.52;;;19.60;60.00;;;;;;4986883;28;92928;-67
2022/05/07 13:05:06;;;;;;;13.80;10.25;;;19.70;60.00;;;;;;4989518;28;93141;-65
2022/05/07 13:07:31;;;;;;;12.18;9.63;;;19.70;60.10;;;;;;4970447;28;93970;-65
2022/05/07 13:09:57;;;;;;;12.57;9.65;;;19.60;60.00;;;;;;4990582;28;93139;-66
2022/05/07 13:12:24;;;;;;;12.82;10.07;;;19.70;60.00;;;;;;4990053;28;92443;-66
2022/05/07 13:14:50;;;;;;;14.40;9.80;;;19.70;60.10;;;;;;4989065;28;93217;-65
2022/05/07 13:17:16;;;;;;;13.93;9.98;;;19.70;60.00;;;;;;4989500;28;93837;-65
2022/05/07 13:19:42;;;;;;;13.23;9.85;;;19.70;60.00;;;;;;4989095;28;92442;-65
2022/05/07 13:22:08;;;;;;;11.55;9.18;;;19.70;60.00;;;;;;4989984;28;92545;-65